createdAt,value
2018-08-03T00:00:26.254Z,4.87
2018-08-03T00:01:30.653Z,5.40
2018-08-03T00:02:35.246Z,4.93
2018-08-03T00:03:39.498Z,5.43
2018-08-03T00:04:43.756Z,5.93
2018-08-03T00:05:47.998Z,4.93
2018-08-03T00:06:52.272Z,5.57
2018-08-03T00:07:56.621Z,4.80
2018-08-03T00:09:00.799Z,5.20
2018-08-03T00:10:06.559Z,6.13
2018-08-03T00:11:10.813Z,4.70
2018-08-03T00:12:15.142Z,5.10
2018-08-03T00:13:19.275Z,7.10
2018-08-03T00:14:23.510Z,5.43
2018-08-03T00:15:27.754Z,5.27
2018-08-03T00:16:32.065Z,5.10
2018-08-03T00:17:36.696Z,4.90
2018-08-03T00:18:40.883Z,5.43
2018-08-03T00:19:45.498Z,5.13
2018-08-03T00:20:50.011Z,4.80
2018-08-03T00:21:54.367Z,5.43
2018-08-03T00:22:58.659Z,5.73
2018-08-03T00:24:02.962Z,5.43
2018-08-03T00:25:07.938Z,5.37
2018-08-03T00:26:12.179Z,5.63
2018-08-03T00:27:16.350Z,4.80
2018-08-03T00:28:20.573Z,4.97
2018-08-03T00:29:24.711Z,4.97
2018-08-03T00:30:28.882Z,4.90
2018-08-03T00:31:33.281Z,5.20
2018-08-03T00:32:37.500Z,5.20
2018-08-03T00:33:42.114Z,5.20
2018-08-03T00:34:46.333Z,5.87
2018-08-03T00:35:50.849Z,4.87
2018-08-03T00:36:55.066Z,4.57
2018-08-03T00:37:59.526Z,4.87
2018-08-03T00:39:04.650Z,4.40
2018-08-03T00:40:08.886Z,4.93
2018-08-03T00:41:13.105Z,5.00
2018-08-03T00:42:17.329Z,4.30
2018-08-03T00:43:21.694Z,4.70
2018-08-03T00:44:25.955Z,6.13
2018-08-03T00:45:30.321Z,4.90
2018-08-03T00:46:34.533Z,5.67
2018-08-03T00:47:38.909Z,5.00
2018-08-03T00:48:43.126Z,4.73
2018-08-03T00:49:47.329Z,5.00
2018-08-03T00:50:51.530Z,5.70
2018-08-03T00:51:55.801Z,4.50
2018-08-03T00:52:59.989Z,4.70
2018-08-03T00:54:04.429Z,4.70
2018-08-03T00:55:08.755Z,5.27
2018-08-03T00:56:12.922Z,4.40
2018-08-03T00:57:17.221Z,5.50
2018-08-03T00:58:21.613Z,4.90
2018-08-03T00:59:26.174Z,5.00
2018-08-03T01:00:30.365Z,4.37
2018-08-03T01:01:34.828Z,4.57
2018-08-03T01:02:39.005Z,4.77
2018-08-03T01:03:43.303Z,5.10
2018-08-03T01:04:47.475Z,4.50
2018-08-03T01:05:51.773Z,4.73
2018-08-03T01:06:55.998Z,5.17
2018-08-03T01:08:00.200Z,5.27
2018-08-03T01:09:07.079Z,5.57
2018-08-03T01:10:11.448Z,4.63
2018-08-03T01:11:15.768Z,4.93
2018-08-03T01:12:20.060Z,5.03
2018-08-03T01:13:24.278Z,4.60
2018-08-03T01:14:28.453Z,5.63
2018-08-03T01:15:32.693Z,4.80
2018-08-03T01:16:42.201Z,4.30
2018-08-03T01:17:46.320Z,4.00
2018-08-03T01:18:50.712Z,5.63
2018-08-03T01:19:54.893Z,4.60
2018-08-03T01:20:59.317Z,5.20
2018-08-03T01:22:03.736Z,4.73
2018-08-03T01:23:08.047Z,4.20
2018-08-03T01:24:12.214Z,5.00
2018-08-03T01:25:16.556Z,5.13
2018-08-03T01:26:20.989Z,4.23
2018-08-03T01:27:25.196Z,5.60
2018-08-03T01:28:29.513Z,4.00
2018-08-03T01:29:33.789Z,4.90
2018-08-03T01:30:37.998Z,4.40
2018-08-03T01:31:42.189Z,5.00
2018-08-03T01:32:46.437Z,4.53
2018-08-03T01:33:51.030Z,4.10
2018-08-03T01:34:55.235Z,5.20
2018-08-03T01:35:59.633Z,4.60
2018-08-03T01:37:03.901Z,4.00
2018-08-03T01:38:08.452Z,4.27
2018-08-03T01:39:12.695Z,4.20
2018-08-03T01:40:16.857Z,4.90
2018-08-03T01:41:21.172Z,4.77
2018-08-03T01:42:25.318Z,4.43
2018-08-03T01:43:29.482Z,5.40
2018-08-03T01:44:33.821Z,4.50
2018-08-03T01:45:38.153Z,4.30
2018-08-03T01:46:42.313Z,4.37
2018-08-03T01:47:46.694Z,5.00
2018-08-03T01:48:51.136Z,4.90
2018-08-03T01:49:55.298Z,4.10
2018-08-03T01:50:59.846Z,4.70
2018-08-03T01:52:04.048Z,5.33
2018-08-03T01:53:08.427Z,5.07
2018-08-03T01:54:12.557Z,5.00
2018-08-03T01:55:17.068Z,4.97
2018-08-03T01:56:21.202Z,5.20
2018-08-03T01:57:25.505Z,5.20
2018-08-03T01:58:29.769Z,4.40
2018-08-03T01:59:34.041Z,4.60
2018-08-03T02:00:38.510Z,4.63
2018-08-03T02:01:43.079Z,4.17
2018-08-03T02:02:47.381Z,4.33
2018-08-03T02:03:51.796Z,4.37
2018-08-03T02:04:56.108Z,4.50
2018-08-03T02:06:00.332Z,4.90
2018-08-03T02:07:04.526Z,5.10
2018-08-03T02:08:08.760Z,4.30
2018-08-03T02:09:12.960Z,4.70
2018-08-03T02:10:17.199Z,4.73
2018-08-03T02:11:21.434Z,4.67
2018-08-03T02:12:25.623Z,4.90
2018-08-03T02:13:29.807Z,5.03
2018-08-03T02:14:34.234Z,4.73
2018-08-03T02:15:38.629Z,5.13
2018-08-03T02:16:43.277Z,5.20
2018-08-03T02:17:47.447Z,5.70
2018-08-03T02:18:51.870Z,4.87
2018-08-03T02:19:56.108Z,4.93
2018-08-03T02:21:00.322Z,4.53
2018-08-03T02:22:04.812Z,4.17
2018-08-03T02:23:09.134Z,5.17
2018-08-03T02:24:13.346Z,4.53
2018-08-03T02:25:17.681Z,5.97
2018-08-03T02:26:21.953Z,4.27
2018-08-03T02:27:26.101Z,5.00
2018-08-03T02:28:30.286Z,5.30
2018-08-03T02:29:34.705Z,5.40
2018-08-03T02:30:38.934Z,5.20
2018-08-03T02:31:43.305Z,4.73
2018-08-03T02:32:47.494Z,4.93
2018-08-03T02:33:51.994Z,5.23
2018-08-03T02:34:56.226Z,5.10
2018-08-03T02:36:00.558Z,4.43
2018-08-03T02:37:04.786Z,5.30
2018-08-03T02:38:09.387Z,5.20
2018-08-03T02:39:13.577Z,5.07
2018-08-03T02:40:17.783Z,5.13
2018-08-03T02:41:22.092Z,4.73
2018-08-03T02:42:26.257Z,4.70
2018-08-03T02:43:30.706Z,4.87
2018-08-03T02:44:34.920Z,5.30
2018-08-03T02:45:39.146Z,5.07
2018-08-03T02:46:43.428Z,5.67
2018-08-03T02:47:47.622Z,5.57
2018-08-03T02:48:51.818Z,5.20
2018-08-03T02:49:56.065Z,5.10
2018-08-03T02:51:00.273Z,4.80
2018-08-03T02:52:04.605Z,5.00
2018-08-03T02:53:09.110Z,5.27
2018-08-03T02:54:13.534Z,4.90
2018-08-03T02:55:17.727Z,4.90
2018-08-03T02:56:21.991Z,5.10
2018-08-03T02:57:26.310Z,6.40
2018-08-03T02:58:30.701Z,5.20
2018-08-03T02:59:35.124Z,5.40
2018-08-03T03:00:47.772Z,5.53
2018-08-03T03:01:52.036Z,4.87
2018-08-03T03:02:56.242Z,5.50
2018-08-03T03:04:00.558Z,5.53
2018-08-03T03:05:04.870Z,5.80
2018-08-03T03:06:09.098Z,5.20
2018-08-03T03:07:13.266Z,5.30
2018-08-03T03:08:17.496Z,5.20
2018-08-03T03:09:21.849Z,5.73
2018-08-03T03:10:26.040Z,5.70
2018-08-03T03:11:30.191Z,5.90
2018-08-03T03:12:34.701Z,5.13
2018-08-03T03:13:39.114Z,6.33
2018-08-03T03:14:43.377Z,5.73
2018-08-03T03:15:47.524Z,5.70
2018-08-03T03:16:51.742Z,5.17
2018-08-03T03:17:56.161Z,5.83
2018-08-03T03:19:00.643Z,5.13
2018-08-03T03:20:05.149Z,5.23
2018-08-03T03:21:09.302Z,5.53
2018-08-03T03:22:13.530Z,5.27
2018-08-03T03:23:17.739Z,5.80
2018-08-03T03:24:21.921Z,6.03
2018-08-03T03:25:26.104Z,5.60
2018-08-03T03:26:30.283Z,5.00
2018-08-03T03:27:34.719Z,6.20
2018-08-03T03:28:39.013Z,5.73
2018-08-03T03:29:43.226Z,6.60
2018-08-03T03:30:47.406Z,5.43
2018-08-03T03:31:51.637Z,6.13
2018-08-03T03:32:55.786Z,5.20
2018-08-03T03:34:00.108Z,5.47
2018-08-03T03:35:04.739Z,6.17
2018-08-03T03:36:08.962Z,6.10
2018-08-03T03:37:13.353Z,5.33
2018-08-03T03:38:17.608Z,5.20
2018-08-03T03:39:21.814Z,5.63
2018-08-03T03:40:26.102Z,5.50
2018-08-03T03:41:30.495Z,6.23
2018-08-03T03:42:34.662Z,6.30
2018-08-03T03:43:38.918Z,5.17
2018-08-03T03:44:43.193Z,6.00
2018-08-03T03:45:47.466Z,5.93
2018-08-03T03:46:52.123Z,5.77
2018-08-03T03:47:56.295Z,5.63
2018-08-03T03:49:00.653Z,6.53
2018-08-03T03:50:05.897Z,5.43
2018-08-03T03:51:10.547Z,6.13
2018-08-03T03:52:14.790Z,5.43
2018-08-03T03:53:19.043Z,5.57
2018-08-03T03:54:23.430Z,5.90
2018-08-03T03:55:27.583Z,5.80
2018-08-03T03:56:31.810Z,5.90
2018-08-03T03:57:35.977Z,5.73
2018-08-03T03:58:40.213Z,6.33
2018-08-03T03:59:44.427Z,6.13
2018-08-03T04:00:48.675Z,5.87
2018-08-03T04:01:53.045Z,5.50
2018-08-03T04:02:57.406Z,5.80
2018-08-03T04:04:01.657Z,6.53
2018-08-03T04:05:06.581Z,6.43
2018-08-03T04:06:10.890Z,5.90
2018-08-03T04:07:15.149Z,6.30
2018-08-03T04:08:19.282Z,5.80
2018-08-03T04:09:23.510Z,6.47
2018-08-03T04:10:27.709Z,6.27
2018-08-03T04:11:31.998Z,6.17
2018-08-03T04:12:36.246Z,6.23
2018-08-03T04:13:40.652Z,6.10
2018-08-03T04:14:44.842Z,5.87
2018-08-03T04:15:49.129Z,5.93
2018-08-03T04:16:53.286Z,5.40
2018-08-03T04:17:57.486Z,6.50
2018-08-03T04:19:01.862Z,6.13
2018-08-03T04:20:06.490Z,6.30
2018-08-03T04:21:10.746Z,6.37
2018-08-03T04:22:15.187Z,6.50
2018-08-03T04:23:19.710Z,5.93
2018-08-03T04:24:23.959Z,6.47
2018-08-03T04:25:28.600Z,5.20
2018-08-03T04:26:32.730Z,6.67
2018-08-03T04:27:37.096Z,6.60
2018-08-03T04:28:41.264Z,6.10
2018-08-03T04:29:45.634Z,6.80
2018-08-03T04:30:49.857Z,6.63
2018-08-03T04:31:54.082Z,6.13
2018-08-03T04:32:58.295Z,5.70
2018-08-03T04:34:03.025Z,5.83
2018-08-03T04:35:07.398Z,6.13
2018-08-03T04:36:11.602Z,5.77
2018-08-03T04:37:15.816Z,5.80
2018-08-03T04:38:20.234Z,6.20
2018-08-03T04:39:24.805Z,5.73
2018-08-03T04:40:29.040Z,6.73
2018-08-03T04:41:33.226Z,6.63
2018-08-03T04:42:37.464Z,5.23
2018-08-03T04:43:41.699Z,6.90
2018-08-03T04:44:46.335Z,7.00
2018-08-03T04:45:50.489Z,5.93
2018-08-03T04:46:54.702Z,6.47
2018-08-03T04:47:58.997Z,6.30
2018-08-03T04:49:03.320Z,6.20
2018-08-03T04:50:07.610Z,6.20
2018-08-03T04:51:11.793Z,6.90
2018-08-03T04:52:16.232Z,6.63
2018-08-03T04:53:20.403Z,5.93
2018-08-03T04:54:24.852Z,6.43
2018-08-03T04:55:29.318Z,6.67
2018-08-03T04:56:33.789Z,6.63
2018-08-03T04:57:38.221Z,6.57
2018-08-03T04:58:42.450Z,6.10
2018-08-03T04:59:46.709Z,7.03
2018-08-03T05:00:50.989Z,6.33
2018-08-03T05:01:55.174Z,6.70
2018-08-03T05:02:59.414Z,6.70
2018-08-03T05:04:03.834Z,8.00
2018-08-03T05:05:08.206Z,7.10
2018-08-03T05:06:12.435Z,6.50
2018-08-03T05:07:16.831Z,7.97
2018-08-03T05:08:21.078Z,6.60
2018-08-03T05:09:25.262Z,7.43
2018-08-03T05:10:29.497Z,6.87
2018-08-03T05:11:33.784Z,7.27
2018-08-03T05:12:37.982Z,7.20
2018-08-03T05:13:42.257Z,6.87
2018-08-03T05:14:46.438Z,6.27
2018-08-03T05:15:50.806Z,6.57
2018-08-03T05:16:55.031Z,7.10
2018-08-03T05:17:59.289Z,7.53
2018-08-03T05:19:03.801Z,7.00
2018-08-03T05:20:08.520Z,8.00
2018-08-03T05:21:12.678Z,6.00
2018-08-03T05:22:17.232Z,7.20
2018-08-03T05:23:21.530Z,7.60
2018-08-03T05:24:25.999Z,7.63
2018-08-03T05:25:30.209Z,7.90
2018-08-03T05:26:34.457Z,6.87
2018-08-03T05:27:38.703Z,7.07
2018-08-03T05:28:43.193Z,7.30
2018-08-03T05:29:47.538Z,8.10
2018-08-03T05:30:51.725Z,7.47
2018-08-03T05:31:56.179Z,6.90
2018-08-03T05:33:00.790Z,7.80
2018-08-03T05:34:05.291Z,8.00
2018-08-03T05:35:09.721Z,7.00
2018-08-03T05:36:13.962Z,7.53
2018-08-03T05:37:18.627Z,7.57
2018-08-03T05:38:22.951Z,7.73
2018-08-03T05:39:27.142Z,7.00
2018-08-03T05:40:31.317Z,9.33
2018-08-03T05:41:35.703Z,7.60
2018-08-03T05:42:40.098Z,7.00
2018-08-03T05:43:44.350Z,7.50
2018-08-03T05:44:48.826Z,7.10
2018-08-03T05:45:53.021Z,7.10
2018-08-03T05:46:57.382Z,7.97
2018-08-03T05:48:01.612Z,8.30
2018-08-03T05:49:06.055Z,7.80
2018-08-03T05:50:10.285Z,8.77
2018-08-03T05:51:14.647Z,7.90
2018-08-03T05:52:18.779Z,7.30
2018-08-03T05:53:23.163Z,8.07
2018-08-03T05:54:27.408Z,7.73
2018-08-03T05:55:31.658Z,7.60
2018-08-03T05:56:35.946Z,7.80
2018-08-03T05:57:40.125Z,7.50
2018-08-03T05:58:44.623Z,7.60
2018-08-03T05:59:48.822Z,7.60
2018-08-03T06:00:53.173Z,7.70
2018-08-03T06:01:57.399Z,7.57
2018-08-03T06:03:01.803Z,8.20
2018-08-03T06:04:06.344Z,7.70
2018-08-03T06:05:10.551Z,7.83
2018-08-03T06:06:15.147Z,6.83
2018-08-03T06:07:19.376Z,8.40
2018-08-03T06:08:23.693Z,7.40
2018-08-03T06:09:27.956Z,7.70
2018-08-03T06:10:32.338Z,7.20
2018-08-03T06:11:36.649Z,8.13
2018-08-03T06:12:40.865Z,8.70
2018-08-03T06:13:45.058Z,7.13
2018-08-03T06:14:49.239Z,7.87
2018-08-03T06:15:53.598Z,7.40
2018-08-03T06:16:57.960Z,8.70
2018-08-03T06:18:02.460Z,7.73
2018-08-03T06:19:06.951Z,8.03
2018-08-03T06:20:12.778Z,8.57
2018-08-03T06:21:17.275Z,8.50
2018-08-03T06:22:21.493Z,7.80
2018-08-03T06:23:25.698Z,8.10
2018-08-03T06:24:30.651Z,8.60
2018-08-03T06:25:34.970Z,8.30
2018-08-03T06:26:39.354Z,9.87
2018-08-03T06:27:43.565Z,9.03
2018-08-03T06:28:47.817Z,9.40
2018-08-03T06:29:52.483Z,7.83
2018-08-03T06:30:56.827Z,7.90
2018-08-03T06:32:01.387Z,9.60
2018-08-03T06:33:05.586Z,9.27
2018-08-03T06:34:10.106Z,8.67
2018-08-03T06:35:14.467Z,9.07
2018-08-03T06:36:18.950Z,8.13
2018-08-03T06:37:23.149Z,8.40
2018-08-03T06:38:27.341Z,8.20
2018-08-03T06:39:31.518Z,8.17
2018-08-03T06:40:35.726Z,9.23
2018-08-03T06:41:39.994Z,8.23
2018-08-03T06:42:44.254Z,9.27
2018-08-03T06:43:48.457Z,9.30
2018-08-03T06:44:52.915Z,8.70
2018-08-03T06:45:57.337Z,8.17
2018-08-03T06:47:01.496Z,8.20
2018-08-03T06:48:05.764Z,8.70
2018-08-03T06:49:09.897Z,9.57
2018-08-03T06:50:14.259Z,8.53
2018-08-03T06:51:18.760Z,9.13
2018-08-03T06:52:23.112Z,9.70
2018-08-03T06:53:27.310Z,8.57
2018-08-03T06:54:31.577Z,9.63
2018-08-03T06:55:35.784Z,9.17
2018-08-03T06:56:39.974Z,8.37
2018-08-03T06:57:44.365Z,8.57
2018-08-03T06:58:48.686Z,9.30
2018-08-03T06:59:53.018Z,9.30
2018-08-03T07:00:57.922Z,8.90
2018-08-03T07:02:02.125Z,9.10
2018-08-03T07:03:06.366Z,8.60
2018-08-03T07:04:10.864Z,8.77
2018-08-03T07:05:15.102Z,8.13
2018-08-03T07:06:19.730Z,9.17
2018-08-03T07:07:24.020Z,8.73
2018-08-03T07:08:28.343Z,9.17
2018-08-03T07:09:32.521Z,8.80
2018-08-03T07:10:36.712Z,9.07
2018-08-03T07:11:40.895Z,9.03
2018-08-03T07:12:45.083Z,9.00
2018-08-03T07:13:49.482Z,8.63
2018-08-03T07:14:53.843Z,8.53
2018-08-03T07:15:58.056Z,8.13
2018-08-03T07:17:02.471Z,9.50
2018-08-03T07:18:07.131Z,8.97
2018-08-03T07:19:11.330Z,9.27
2018-08-03T07:20:15.766Z,9.57
2018-08-03T07:21:25.522Z,8.33
2018-08-03T07:22:29.766Z,10.10
2018-08-03T07:23:33.982Z,9.50
2018-08-03T07:24:38.238Z,8.60
2018-08-03T07:25:42.544Z,10.60
2018-08-03T07:26:46.792Z,9.50
2018-08-03T07:27:50.982Z,8.70
2018-08-03T07:28:55.365Z,9.63
2018-08-03T07:29:59.634Z,8.57
2018-08-03T07:31:03.970Z,9.43
2018-08-03T07:32:08.226Z,7.90
2018-08-03T07:33:12.404Z,8.57
2018-08-03T07:34:17.060Z,8.90
2018-08-03T07:35:21.286Z,8.47
2018-08-03T07:36:25.684Z,8.27
2018-08-03T07:37:29.917Z,9.33
2018-08-03T07:38:34.420Z,8.70
2018-08-03T07:39:39.173Z,8.23
2018-08-03T07:40:44.161Z,8.63
2018-08-03T07:41:48.744Z,9.00
2018-08-03T07:42:53.589Z,9.50
2018-08-03T07:43:58.232Z,8.47
2018-08-03T07:45:03.620Z,8.90
2018-08-03T07:46:09.299Z,9.10
2018-08-03T07:47:15.095Z,8.40
2018-08-03T07:48:20.273Z,8.10
2018-08-03T07:49:24.875Z,7.83
2018-08-03T07:50:29.155Z,7.10
2018-08-03T07:51:33.613Z,7.00
2018-08-03T07:52:37.954Z,7.70
2018-08-03T07:53:42.427Z,7.37
2018-08-03T07:54:47.033Z,7.60
2018-08-03T07:55:51.441Z,8.07
2018-08-03T07:56:55.797Z,7.87
2018-08-03T07:58:00.260Z,7.90
2018-08-03T07:59:05.419Z,7.77
2018-08-03T08:00:10.069Z,7.80
2018-08-03T08:01:15.886Z,8.33
2018-08-03T08:02:20.304Z,8.10
2018-08-03T08:03:24.705Z,8.57
2018-08-03T08:04:28.983Z,8.00
2018-08-03T08:05:33.491Z,7.90
2018-08-03T08:06:37.678Z,9.03
2018-08-03T08:07:41.894Z,7.10
2018-08-03T08:08:47.245Z,7.10
2018-08-03T08:09:51.608Z,7.27
2018-08-03T08:10:56.064Z,7.87
2018-08-03T08:12:00.240Z,8.37
2018-08-03T08:13:04.417Z,7.77
2018-08-03T08:14:08.958Z,8.60
2018-08-03T08:15:13.254Z,8.27
2018-08-03T08:16:17.493Z,8.20
2018-08-03T08:17:21.625Z,8.63
2018-08-03T08:18:25.904Z,7.53
2018-08-03T08:19:30.231Z,8.17
2018-08-03T08:20:34.375Z,8.30
2018-08-03T08:21:39.004Z,7.50
2018-08-03T08:22:43.358Z,8.43
2018-08-03T08:23:47.633Z,8.40
2018-08-03T08:24:51.855Z,7.50
2018-08-03T08:25:56.088Z,7.03
2018-08-03T08:27:00.308Z,8.27
2018-08-03T08:28:04.667Z,7.53
2018-08-03T08:29:08.843Z,7.83
2018-08-03T08:30:13.004Z,8.10
2018-08-03T08:31:17.205Z,7.90
2018-08-03T08:32:21.482Z,8.30
2018-08-03T08:33:25.676Z,7.37
2018-08-03T08:34:30.056Z,8.30
2018-08-03T08:35:34.285Z,8.00
2018-08-03T08:36:38.526Z,7.50
2018-08-03T08:37:42.757Z,7.70
2018-08-03T08:38:46.950Z,8.03
2018-08-03T08:39:51.410Z,7.33
2018-08-03T08:40:55.671Z,7.17
2018-08-03T08:41:59.851Z,8.33
2018-08-03T08:43:04.034Z,8.03
2018-08-03T08:44:08.285Z,7.40
2018-08-03T08:45:12.466Z,7.70
2018-08-03T08:46:16.671Z,7.37
2018-08-03T08:47:21.015Z,8.67
2018-08-03T08:48:25.194Z,6.93
2018-08-03T08:49:29.624Z,7.53
2018-08-03T08:50:33.781Z,7.57
2018-08-03T08:51:38.054Z,8.10
2018-08-03T08:52:42.321Z,7.33
2018-08-03T08:53:46.954Z,6.80
2018-08-03T08:54:51.299Z,7.83
2018-08-03T08:55:55.345Z,7.40
2018-08-03T08:56:59.647Z,7.70
2018-08-03T08:58:03.955Z,7.30
2018-08-03T08:59:08.136Z,7.20
2018-08-03T09:00:12.411Z,7.47
2018-08-03T09:01:16.599Z,6.57
2018-08-03T09:02:20.990Z,7.37
2018-08-03T09:03:25.196Z,8.20
2018-08-03T09:04:29.594Z,7.87
2018-08-03T09:05:33.843Z,7.70
2018-08-03T09:06:38.263Z,7.13
2018-08-03T09:07:42.621Z,7.97
2018-08-03T09:08:46.972Z,7.33
2018-08-03T09:09:51.118Z,7.20
2018-08-03T09:10:55.378Z,7.73
2018-08-03T09:11:59.541Z,7.20
2018-08-03T09:13:03.806Z,7.17
2018-08-03T09:14:08.225Z,6.97
2018-08-03T09:15:12.427Z,7.33
2018-08-03T09:16:16.797Z,7.37
2018-08-03T09:17:21.093Z,7.23
2018-08-03T09:18:25.351Z,7.57
2018-08-03T09:19:29.670Z,8.00
2018-08-03T09:20:33.913Z,8.30
2018-08-03T09:21:38.173Z,7.30
2018-08-03T09:22:42.434Z,8.00
2018-08-03T09:23:46.626Z,7.50
2018-08-03T09:24:50.888Z,7.77
2018-08-03T09:25:55.134Z,7.20
2018-08-03T09:26:59.341Z,7.90
2018-08-03T09:28:03.483Z,7.30
2018-08-03T09:29:07.850Z,8.20
2018-08-03T09:30:12.160Z,7.33
2018-08-03T09:31:16.425Z,7.80
2018-08-03T09:32:20.664Z,7.30
2018-08-03T09:33:25.079Z,8.83
2018-08-03T09:34:29.500Z,7.50
2018-08-03T09:35:33.737Z,7.47
2018-08-03T09:36:38.198Z,7.60
2018-08-03T09:37:42.307Z,7.57
2018-08-03T09:38:46.510Z,8.33
2018-08-03T09:39:51.174Z,8.43
2018-08-03T09:40:55.393Z,8.13
2018-08-03T09:41:59.655Z,7.37
2018-08-03T09:43:03.915Z,8.10
2018-08-03T09:44:09.119Z,7.03
2018-08-03T09:45:13.354Z,7.67
2018-08-03T09:46:17.666Z,7.67
2018-08-03T09:47:22.051Z,7.47
2018-08-03T09:48:26.290Z,8.13
2018-08-03T09:49:30.735Z,7.27
2018-08-03T09:50:35.350Z,7.50
2018-08-03T09:51:40.038Z,7.47
2018-08-03T09:52:44.439Z,7.37
2018-08-03T09:53:48.738Z,8.10
2018-08-03T09:54:53.149Z,7.43
2018-08-03T09:55:57.592Z,7.27
2018-08-03T09:57:01.794Z,8.93
2018-08-03T09:58:06.191Z,8.63
2018-08-03T09:59:10.763Z,7.60
2018-08-03T10:00:16.636Z,7.20
2018-08-03T10:01:21.090Z,7.47
2018-08-03T10:02:25.404Z,8.93
2018-08-03T10:03:29.935Z,7.27
2018-08-03T10:04:34.344Z,8.27
2018-08-03T10:05:38.690Z,7.47
2018-08-03T10:06:42.999Z,7.80
2018-08-03T10:07:47.354Z,8.63
2018-08-03T10:08:52.336Z,7.50
2018-08-03T10:09:56.569Z,8.10
2018-08-03T10:11:00.885Z,7.23
2018-08-03T10:12:05.130Z,7.80
2018-08-03T10:13:09.375Z,7.37
2018-08-03T10:14:13.787Z,8.13
2018-08-03T10:15:18.200Z,9.23
2018-08-03T10:16:22.534Z,6.90
2018-08-03T10:17:26.721Z,7.60
2018-08-03T10:18:31.508Z,7.20
2018-08-03T10:19:36.131Z,7.07
2018-08-03T10:20:40.530Z,6.90
2018-08-03T10:21:44.766Z,7.77
2018-08-03T10:22:49.225Z,7.70
2018-08-03T10:23:53.475Z,7.70
2018-08-03T10:24:57.693Z,6.73
2018-08-03T10:26:01.943Z,7.50
2018-08-03T10:27:06.135Z,8.33
2018-08-03T10:28:10.396Z,7.50
2018-08-03T10:29:14.712Z,7.73
2018-08-03T10:30:18.954Z,7.47
2018-08-03T10:31:23.252Z,7.77
2018-08-03T10:32:27.460Z,8.80
2018-08-03T10:33:31.956Z,7.77
2018-08-03T10:34:36.813Z,7.47
2018-08-03T10:35:41.592Z,7.10
2018-08-03T10:36:45.766Z,7.00
2018-08-03T10:37:50.039Z,7.47
2018-08-03T10:38:54.545Z,7.77
2018-08-03T10:39:58.851Z,7.27
2018-08-03T10:41:03.131Z,8.73
2018-08-03T10:42:07.436Z,7.43
2018-08-03T10:43:11.709Z,7.87
2018-08-03T10:44:15.923Z,9.00
2018-08-03T10:45:20.201Z,7.70
2018-08-03T10:46:24.428Z,7.07
2018-08-03T10:47:28.745Z,7.47
2018-08-03T10:48:33.138Z,7.33
2018-08-03T10:49:37.476Z,7.23
2018-08-03T10:50:41.843Z,8.23
2018-08-03T10:51:46.219Z,7.67
2018-08-03T10:52:50.807Z,6.73
2018-08-03T10:53:54.986Z,7.50
2018-08-03T10:54:59.321Z,7.67
2018-08-03T10:56:03.608Z,7.70
2018-08-03T10:57:08.010Z,7.80
2018-08-03T10:58:12.244Z,8.23
2018-08-03T10:59:16.491Z,7.57
2018-08-03T11:00:26.191Z,7.43
2018-08-03T11:01:30.573Z,7.50
2018-08-03T11:02:34.845Z,7.07
2018-08-03T11:03:39.100Z,7.40
2018-08-03T11:04:43.334Z,8.20
2018-08-03T11:05:47.655Z,8.13
2018-08-03T11:06:52.022Z,7.40
2018-08-03T11:07:56.515Z,7.50
2018-08-03T11:09:00.713Z,8.13
2018-08-03T11:10:05.020Z,7.80
2018-08-03T11:11:09.223Z,7.47
2018-08-03T11:12:13.628Z,8.27
2018-08-03T11:13:17.890Z,7.93
2018-08-03T11:14:22.254Z,8.67
2018-08-03T11:15:26.517Z,7.00
2018-08-03T11:16:30.754Z,8.37
2018-08-03T11:17:35.140Z,7.93
2018-08-03T11:18:39.674Z,7.30
2018-08-03T11:19:44.763Z,7.57
2018-08-03T11:20:48.991Z,7.07
2018-08-03T11:21:53.394Z,7.10
2018-08-03T11:22:58.019Z,7.80
2018-08-03T11:24:02.532Z,7.43
2018-08-03T11:25:07.602Z,7.20
2018-08-03T11:26:11.823Z,7.60
2018-08-03T11:27:16.066Z,6.60
2018-08-03T11:28:20.281Z,8.73
2018-08-03T11:29:24.517Z,7.17
2018-08-03T11:30:28.719Z,7.27
2018-08-03T11:31:42.158Z,7.30
2018-08-03T11:32:46.407Z,7.17
2018-08-03T11:33:50.634Z,7.00
2018-08-03T11:34:55.137Z,6.43
2018-08-03T11:35:59.462Z,6.50
2018-08-03T11:37:03.685Z,7.30
2018-08-03T11:38:08.147Z,6.40
2018-08-03T11:39:13.004Z,6.97
2018-08-03T11:40:17.380Z,6.33
2018-08-03T11:41:21.556Z,6.60
2018-08-03T11:42:25.815Z,6.30
2018-08-03T11:43:30.146Z,6.40
2018-08-03T11:44:34.822Z,5.90
2018-08-03T11:45:39.086Z,7.67
2018-08-03T11:48:11.543Z,6.83
2018-08-03T11:49:15.906Z,7.90
2018-08-03T11:50:20.205Z,6.63
2018-08-03T11:51:24.581Z,5.97
2018-08-03T11:52:28.887Z,6.80
2018-08-03T11:53:33.448Z,6.90
2018-08-03T11:54:37.942Z,6.03
2018-08-03T11:55:42.155Z,6.40
2018-08-03T11:56:46.463Z,6.40
2018-08-03T11:57:50.668Z,6.10
2018-08-03T11:58:55.753Z,6.50
2018-08-03T11:59:59.974Z,6.17
2018-08-03T12:01:04.387Z,6.13
2018-08-03T12:02:08.934Z,5.83
2018-08-03T12:03:13.343Z,5.67
2018-08-03T12:04:17.533Z,5.87
2018-08-03T12:05:21.760Z,6.93
2018-08-03T12:06:26.011Z,5.97
2018-08-03T12:07:30.274Z,7.03
2018-08-03T12:08:34.564Z,6.13
2018-08-03T12:09:38.876Z,5.63
2018-08-03T12:10:43.395Z,5.77
2018-08-03T12:11:47.657Z,9.73
2018-08-03T12:12:51.923Z,6.53
2018-08-03T12:13:56.178Z,6.17
2018-08-03T12:15:00.853Z,5.93
2018-08-03T12:16:05.088Z,5.90
2018-08-03T12:17:09.470Z,6.97
2018-08-03T12:18:14.633Z,6.57
2018-08-03T12:19:18.810Z,6.20
2018-08-03T12:20:23.117Z,5.40
2018-08-03T12:21:27.969Z,6.80
2018-08-03T12:22:32.269Z,6.60
2018-08-03T12:23:37.180Z,6.70
2018-08-03T12:24:41.496Z,6.57
2018-08-03T12:25:45.719Z,6.83
2018-08-03T12:26:50.060Z,7.60
2018-08-03T12:27:54.283Z,7.37
2018-08-03T12:29:00.141Z,9.63
2018-08-03T12:30:09.445Z,6.90
2018-08-03T12:31:13.883Z,7.03
2018-08-03T12:32:18.370Z,6.80
2018-08-03T12:33:22.558Z,6.50
2018-08-03T12:34:26.798Z,7.47
2018-08-03T12:35:31.325Z,6.80
2018-08-03T12:36:35.564Z,10.03
2018-08-03T12:37:40.202Z,9.00
2018-08-03T12:38:44.606Z,7.07
2018-08-03T12:39:48.894Z,7.00
2018-08-03T12:40:53.109Z,7.40
2018-08-03T12:41:57.621Z,7.73
2018-08-03T12:43:01.907Z,7.37
2018-08-03T12:44:06.719Z,6.40
2018-08-03T12:45:10.943Z,6.63
2018-08-03T12:46:15.393Z,6.53
2018-08-03T12:47:19.662Z,6.50
2018-08-03T12:48:23.911Z,7.03
2018-08-03T12:49:28.167Z,5.90
2018-08-03T12:50:32.505Z,7.50
2018-08-03T12:51:36.893Z,7.27
2018-08-03T12:52:41.174Z,7.50
2018-08-03T12:53:45.399Z,7.00
2018-08-03T12:54:49.703Z,7.10
2018-08-03T12:55:54.010Z,6.50
2018-08-03T12:56:58.303Z,7.50
2018-08-03T12:58:02.504Z,7.23
2018-08-03T12:59:06.772Z,7.43
2018-08-03T13:00:11.187Z,7.20
2018-08-03T13:01:15.512Z,8.00
2018-08-03T13:02:19.716Z,7.50
2018-08-03T13:03:24.219Z,7.30
2018-08-03T13:04:28.525Z,6.70
2018-08-03T13:05:32.783Z,7.53
2018-08-03T13:06:36.995Z,8.10
2018-08-03T13:07:41.237Z,7.40
2018-08-03T13:08:45.500Z,8.00
2018-08-03T13:09:49.799Z,6.60
2018-08-03T13:10:54.015Z,7.63
2018-08-03T13:11:58.390Z,7.00
2018-08-03T13:13:07.522Z,7.47
2018-08-03T13:14:11.710Z,7.40
2018-08-03T13:15:16.243Z,6.80
2018-08-03T13:16:20.651Z,6.87
2018-08-03T13:17:25.245Z,7.63
2018-08-03T13:18:30.115Z,7.00
2018-08-03T13:19:34.319Z,7.30
2018-08-03T13:20:38.602Z,7.33
2018-08-03T13:21:43.164Z,7.10
2018-08-03T13:22:47.432Z,7.00
2018-08-03T13:23:55.790Z,6.80
2018-08-03T13:24:59.988Z,6.63
2018-08-03T13:26:04.219Z,7.73
2018-08-03T13:27:08.431Z,7.80
2018-08-03T13:28:12.683Z,8.07
2018-08-03T13:29:16.935Z,7.33
2018-08-03T13:30:21.117Z,8.80
2018-08-03T13:31:26.532Z,7.13
2018-08-03T13:32:31.059Z,7.43
2018-08-03T13:33:35.327Z,7.10
2018-08-03T13:34:39.614Z,8.07
2018-08-03T13:35:44.331Z,7.63
2018-08-03T13:36:48.800Z,6.83
2018-08-03T13:37:53.026Z,7.30
2018-08-03T13:38:57.328Z,7.50
2018-08-03T13:40:01.809Z,6.47
2018-08-03T13:41:06.207Z,7.20
2018-08-03T13:42:10.495Z,7.37
2018-08-03T13:43:14.752Z,7.43
2018-08-03T13:44:19.046Z,7.63
2018-08-03T13:45:23.282Z,6.93
2018-08-03T13:46:27.494Z,7.83
2018-08-03T13:47:31.795Z,7.33
2018-08-03T13:48:36.035Z,7.33
2018-08-03T13:49:40.399Z,7.10
2018-08-03T13:50:44.875Z,6.73
2018-08-03T13:51:49.157Z,7.97
2018-08-03T13:52:53.426Z,7.40
2018-08-03T13:53:57.643Z,7.30
2018-08-03T13:55:01.998Z,7.43
2018-08-03T13:56:06.522Z,6.97
2018-08-03T13:57:10.737Z,8.00
2018-08-03T13:58:14.963Z,7.87
2018-08-03T13:59:19.383Z,6.90
2018-08-03T14:00:23.642Z,7.47
2018-08-03T14:02:38.655Z,7.43
2018-08-03T14:03:42.977Z,7.97
2018-08-03T14:04:47.466Z,7.17
2018-08-03T14:05:51.847Z,6.80
2018-08-03T14:06:56.006Z,7.00
2018-08-03T14:08:00.195Z,7.03
2018-08-03T14:09:04.846Z,7.20
2018-08-03T14:10:10.520Z,7.00
2018-08-03T14:11:15.753Z,6.83
2018-08-03T14:12:20.189Z,6.27
2018-08-03T14:13:26.271Z,7.87
2018-08-03T14:14:38.151Z,7.30
2018-08-03T14:15:42.378Z,6.77
2018-08-03T14:16:46.829Z,6.90
2018-08-03T14:17:51.087Z,6.90
2018-08-03T14:18:55.557Z,6.70
2018-08-03T14:19:59.951Z,7.03